sensor_id;sensor_type;location;lat;lon;timestamp;pressure;altitude;pressure_sealevel;temperature;humidity
69060;BME280;56135;37.534;-122.308;2023-03-22T00:02:04;99059.00;;;7.61;100.00
69060;BME280;56135;37.534;-122.308;2023-03-22T00:04:30;99080.66;;;7.69;100.00
69060;BME280;56135;37.534;-122.308;2023-03-22T00:06:59;99098.59;;;7.55;100.00
69060;BME280;56135;37.534;-122.308;2023-03-22T00:09:25;99111.94;;;7.47;100.00
69060;BME280;56135;37.534;-122.308;2023-03-22T00:11:51;99112.78;;;7.47;100.00
69060;BME280;56135;37.534;-122.308;2023-03-22T00:14:17;99123.69;;;7.32;100.00
69060;BME280;56135;37.534;-122.308;2023-03-22T00:16:43;99146.31;;;7.38;100.00
69060;BME280;56135;37.534;-122.308;2023-03-22T00:19:10;99138.53;;;7.33;100.00
69060;BME280;56135;37.534;-122.308;2023-03-22T00:21:36;99142.09;;;7.30;100.00
69060;BME280;56135;37.534;-122.308;2023-03-22T00:24:02;99151.94;;;7.22;100.00
69060;BME280;56135;37.534;-122.308;2023-03-22T00:26:28;99160.66;;;7.24;100.00
69060;BME280;56135;37.534;-122.308;2023-03-22T00:28:54;99181.84;;;7.16;100.00
69060;BME280;56135;37.534;-122.308;2023-03-22T00:31:20;99168.91;;;7.09;100.00
69060;BME280;56135;37.534;-122.308;2023-03-22T00:33:46;99192.59;;;7.07;100.00
69060;BME280;56135;37.534;-122.308;2023-03-22T00:36:15;99202.31;;;7.02;100.00
69060;BME280;56135;37.534;-122.308;2023-03-22T00:38:40;99217.19;;;7.01;100.00
69060;BME280;56135;37.534;-122.308;2023-03-22T00:41:14;99225.28;;;6.94;100.00
69060;BME280;56135;37.534;-122.308;2023-03-22T00:43:41;99225.28;;;6.92;100.00
69060;BME280;56135;37.534;-122.308;2023-03-22T00:46:07;99222.69;;;6.91;100.00
69060;BME280;56135;37.534;-122.308;2023-03-22T00:48:33;99241.16;;;6.88;100.00
69060;BME280;56135;37.534;-122.308;2023-03-22T00:51:01;99262.22;;;6.83;100.00
69060;BME280;56135;37.534;-122.308;2023-03-22T00:53:27;99256.28;;;6.75;100.00
69060;BME280;56135;37.534;-122.308;2023-03-22T00:55:54;99267.66;;;6.74;100.00
69060;BME280;56135;37.534;-122.308;2023-03-22T00:58:22;99274.63;;;6.76;100.00
69060;BME280;56135;37.534;-122.308;2023-03-22T01:00:51;99263.47;;;6.66;100.00
69060;BME280;56135;37.534;-122.308;2023-03-22T01:03:20;99287.16;;;6.63;100.00
69060;BME280;56135;37.534;-122.308;2023-03-22T01:11:54;99269.94;;;6.48;100.00
69060;BME280;56135;37.534;-122.308;2023-03-22T01:14:23;99305.78;;;6.49;100.00
69060;BME280;56135;37.534;-122.308;2023-03-22T01:16:50;99290.88;;;6.51;100.00
69060;BME280;56135;37.534;-122.308;2023-03-22T01:19:19;99315.31;;;6.55;100.00
69060;BME280;56135;37.534;-122.308;2023-03-22T01:21:45;99320.59;;;6.52;100.00
69060;BME280;56135;37.534;-122.308;2023-03-22T01:24:11;99326.81;;;6.46;100.00
69060;BME280;56135;37.534;-122.308;2023-03-22T01:26:37;99332.91;;;6.50;100.00
69060;BME280;56135;37.534;-122.308;2023-03-22T01:29:05;99342.44;;;6.54;100.00
69060;BME280;56135;37.534;-122.308;2023-03-22T01:31:31;99358.22;;;6.51;100.00
69060;BME280;56135;37.534;-122.308;2023-03-22T01:33:57;99372.31;;;6.45;100.00
69060;BME280;56135;37.534;-122.308;2023-03-22T01:36:23;99391.69;;;6.38;100.00
69060;BME280;56135;37.534;-122.308;2023-03-22T01:38:49;99391.66;;;6.40;100.00
69060;BME280;56135;37.534;-122.308;2023-03-22T01:41:15;99382.97;;;6.36;100.00
69060;BME280;56135;37.534;-122.308;2023-03-22T01:43:41;99392.59;;;6.36;100.00
69060;BME280;56135;37.534;-122.308;2023-03-22T01:46:06;99417.09;;;6.34;100.00
69060;BME280;56135;37.534;-122.308;2023-03-22T01:48:39;99383.00;;;6.34;100.00
69060;BME280;56135;37.534;-122.308;2023-03-22T01:51:20;99421.50;;;6.34;100.00
69060;BME280;56135;37.534;-122.308;2023-03-22T01:53:48;99420.59;;;6.33;100.00
69060;BME280;56135;37.534;-122.308;2023-03-22T01:56:16;99444.19;;;6.35;100.00
69060;BME280;56135;37.534;-122.308;2023-03-22T01:58:43;99435.50;;;6.33;100.00
69060;BME280;56135;37.534;-122.308;2023-03-22T02:01:10;99459.13;;;6.31;100.00
69060;BME280;56135;37.534;-122.308;2023-03-22T02:03:39;99450.38;;;6.31;100.00
69060;BME280;56135;37.534;-122.308;2023-03-22T02:06:10;99472.25;;;6.31;100.00
69060;BME280;56135;37.534;-122.308;2023-03-22T02:08:36;99475.66;;;6.37;100.00
69060;BME280;56135;37.534;-122.308;2023-03-22T02:11:02;99481.81;;;6.32;100.00
69060;BME280;56135;37.534;-122.308;2023-03-22T02:16:00;99482.72;;;6.31;100.00
69060;BME280;56135;37.534;-122.308;2023-03-22T02:25:57;99516.81;;;6.30;100.00
69060;BME280;56135;37.534;-122.308;2023-03-22T02:39:05;99553.41;;;6.41;100.00
69060;BME280;56135;37.534;-122.308;2023-03-22T02:41:41;99546.44;;;6.40;100.00
69060;BME280;56135;37.534;-122.308;2023-03-22T02:49:30;99566.63;;;6.34;100.00
69060;BME280;56135;37.534;-122.308;2023-03-22T02:55:04;99567.41;;;6.40;100.00
69060;BME280;56135;37.534;-122.308;2023-03-22T02:57:44;99578.75;;;6.43;100.00
69060;BME280;56135;37.534;-122.308;2023-03-22T03:00:12;99573.44;;;6.46;100.00
69060;BME280;56135;37.534;-122.308;2023-03-22T03:02:40;99583.94;;;6.46;100.00
69060;BME280;56135;37.534;-122.308;2023-03-22T03:05:07;99590.03;;;6.47;100.00
69060;BME280;56135;37.534;-122.308;2023-03-22T03:07:33;99589.22;;;6.45;100.00
69060;BME280;56135;37.534;-122.308;2023-03-22T03:09:59;99597.06;;;6.45;100.00
69060;BME280;56135;37.534;-122.308;2023-03-22T03:12:26;99584.84;;;6.44;100.00
69060;BME280;56135;37.534;-122.308;2023-03-22T03:14:52;99599.69;;;6.45;100.00
69060;BME280;56135;37.534;-122.308;2023-03-22T03:17:23;99590.09;;;6.44;100.00
69060;BME280;56135;37.534;-122.308;2023-03-22T03:24:52;99624.13;;;6.47;100.00
69060;BME280;56135;37.534;-122.308;2023-03-22T03:27:27;99620.59;;;6.49;100.00
69060;BME280;56135;37.534;-122.308;2023-03-22T03:30:01;99630.16;;;6.54;100.00
69060;BME280;56135;37.534;-122.308;2023-03-22T03:32:51;99633.63;;;6.57;100.00
69060;BME280;56135;37.534;-122.308;2023-03-22T03:35:18;99638.88;;;6.57;100.00
69060;BME280;56135;37.534;-122.308;2023-03-22T03:37:51;99636.22;;;6.59;100.00
69060;BME280;56135;37.534;-122.308;2023-03-22T03:40:19;99642.38;;;6.56;100.00
69060;BME280;56135;37.534;-122.308;2023-03-22T03:42:48;99658.06;;;6.61;100.00
69060;BME280;56135;37.534;-122.308;2023-03-22T03:45:16;99658.06;;;6.61;100.00
69060;BME280;56135;37.534;-122.308;2023-03-22T03:47:46;99655.41;;;6.64;100.00
69060;BME280;56135;37.534;-122.308;2023-03-22T03:50:19;99662.41;;;6.63;100.00
69060;BME280;56135;37.534;-122.308;2023-03-22T03:52:45;99673.72;;;6.67;100.00
69060;BME280;56135;37.534;-122.308;2023-03-22T03:55:11;99671.16;;;6.64;100.00
69060;BME280;56135;37.534;-122.308;2023-03-22T03:57:37;99684.22;;;6.68;100.00
69060;BME280;56135;37.534;-122.308;2023-03-22T04:00:03;99695.50;;;6.74;100.00
69060;BME280;56135;37.534;-122.308;2023-03-22T04:02:29;99696.31;;;6.77;100.00
69060;BME280;56135;37.534;-122.308;2023-03-22T04:04:55;99698.88;;;6.83;100.00
69060;BME280;56135;37.534;-122.308;2023-03-22T04:07:20;99714.56;;;6.87;100.00
69060;BME280;56135;37.534;-122.308;2023-03-22T04:09:46;99718.03;;;6.90;100.00
69060;BME280;56135;37.534;-122.308;2023-03-22T04:12:12;99726.75;;;6.92;100.00
69060;BME280;56135;37.534;-122.308;2023-03-22T04:14:38;99738.97;;;6.96;100.00
69060;BME280;56135;37.534;-122.308;2023-03-22T04:17:04;99744.16;;;6.99;100.00
69060;BME280;56135;37.534;-122.308;2023-03-22T04:19:30;99745.94;;;6.99;100.00
69060;BME280;56135;37.534;-122.308;2023-03-22T04:21:56;99750.19;;;7.06;100.00
69060;BME280;56135;37.534;-122.308;2023-03-22T04:24:22;99764.19;;;7.08;100.00
69060;BME280;56135;37.534;-122.308;2023-03-22T04:26:48;99766.78;;;7.10;100.00
69060;BME280;56135;37.534;-122.308;2023-03-22T04:29:14;99768.50;;;7.11;100.00
69060;BME280;56135;37.534;-122.308;2023-03-22T04:31:42;99780.72;;;7.13;100.00
69060;BME280;56135;37.534;-122.308;2023-03-22T04:34:08;99781.59;;;7.14;100.00
69060;BME280;56135;37.534;-122.308;2023-03-22T04:36:35;99792.09;;;7.14;100.00
69060;BME280;56135;37.534;-122.308;2023-03-22T04:39:08;99799.09;;;7.15;100.00
69060;BME280;56135;37.534;-122.308;2023-03-22T04:41:35;99799.09;;;7.15;100.00
69060;BME280;56135;37.534;-122.308;2023-03-22T04:44:05;99804.38;;;7.12;100.00
69060;BME280;56135;37.534;-122.308;2023-03-22T04:46:31;99807.88;;;7.11;100.00
69060;BME280;56135;37.534;-122.308;2023-03-22T04:48:57;99818.41;;;7.11;100.00
69060;BME280;56135;37.534;-122.308;2023-03-22T04:51:26;99828.94;;;7.08;100.00
69060;BME280;56135;37.534;-122.308;2023-03-22T04:53:52;99815.88;;;7.05;100.00
69060;BME280;56135;37.534;-122.308;2023-03-22T04:56:21;99825.53;;;7.01;100.00
69060;BME280;56135;37.534;-122.308;2023-03-22T04:58:47;99829.06;;;6.98;100.00
69060;BME280;56135;37.534;-122.308;2023-03-22T05:01:13;99832.59;;;6.96;100.00
69060;BME280;56135;37.534;-122.308;2023-03-22T05:03:45;99836.22;;;6.89;100.00
69060;BME280;56135;37.534;-122.308;2023-03-22T05:06:11;99844.88;;;6.92;100.00
69060;BME280;56135;37.534;-122.308;2023-03-22T05:08:37;99860.69;;;6.89;100.00
69060;BME280;56135;37.534;-122.308;2023-03-22T05:11:05;99851.94;;;6.90;100.00
69060;BME280;56135;37.534;-122.308;2023-03-22T05:13:32;99865.09;;;6.89;100.00
69060;BME280;56135;37.534;-122.308;2023-03-22T05:15:58;99873.88;;;6.84;100.00
69060;BME280;56135;37.534;-122.308;2023-03-22T05:18:24;99871.25;;;6.83;100.00
69060;BME280;56135;37.534;-122.308;2023-03-22T05:20:51;99878.28;;;6.82;100.00
69060;BME280;56135;37.534;-122.308;2023-03-22T05:23:20;99881.75;;;6.84;100.00
69060;BME280;56135;37.534;-122.308;2023-03-22T05:25:47;99890.56;;;6.80;100.00
69060;BME280;56135;37.534;-122.308;2023-03-22T05:28:13;99892.31;;;6.80;100.00
69060;BME280;56135;37.534;-122.308;2023-03-22T05:30:40;99893.22;;;6.76;100.00
69060;BME280;56135;37.534;-122.308;2023-03-22T05:33:06;99893.22;;;6.76;100.00
69060;BME280;56135;37.534;-122.308;2023-03-22T05:35:33;99904.56;;;6.79;100.00
69060;BME280;56135;37.534;-122.308;2023-03-22T05:37:59;99902.81;;;6.80;100.00
69060;BME280;56135;37.534;-122.308;2023-03-22T05:40:25;99896.63;;;6.84;100.00
69060;BME280;56135;37.534;-122.308;2023-03-22T05:42:51;99911.50;;;6.85;100.00
69060;BME280;56135;37.534;-122.308;2023-03-22T05:45:18;99916.84;;;6.76;100.00
69060;BME280;56135;37.534;-122.308;2023-03-22T05:47:44;99920.34;;;6.78;100.00
69060;BME280;56135;37.534;-122.308;2023-03-22T05:50:11;99922.97;;;6.75;100.00
69060;BME280;56135;37.534;-122.308;2023-03-22T05:52:40;99929.94;;;6.79;100.00
69060;BME280;56135;37.534;-122.308;2023-03-22T05:55:07;99932.53;;;6.82;100.00
69060;BME280;56135;37.534;-122.308;2023-03-22T05:57:40;99936.91;;;6.84;100.00
69060;BME280;56135;37.534;-122.308;2023-03-22T06:00:14;99947.28;;;6.92;100.00
69060;BME280;56135;37.534;-122.308;2023-03-22T06:02:43;99947.31;;;6.94;100.00
69060;BME280;56135;37.534;-122.308;2023-03-22T06:05:10;99942.91;;;6.94;100.00
69060;BME280;56135;37.534;-122.308;2023-03-22T06:07:39;99956.81;;;7.03;100.00
69060;BME280;56135;37.534;-122.308;2023-03-22T06:10:10;99954.06;;;7.16;100.00
69060;BME280;56135;37.534;-122.308;2023-03-22T06:12:36;99957.53;;;7.17;100.00
69060;BME280;56135;37.534;-122.308;2023-03-22T06:15:05;99968.97;;;7.13;100.00
69060;BME280;56135;37.534;-122.308;2023-03-22T06:17:31;99972.41;;;7.20;100.00
69060;BME280;56135;37.534;-122.308;2023-03-22T06:20:04;99974.19;;;7.16;100.00
69060;BME280;56135;37.534;-122.308;2023-03-22T06:22:39;99980.41;;;7.09;100.00
69060;BME280;56135;37.534;-122.308;2023-03-22T06:25:05;99977.75;;;7.10;100.00
69060;BME280;56135;37.534;-122.308;2023-03-22T06:27:40;99982.16;;;7.07;100.00
69060;BME280;56135;37.534;-122.308;2023-03-22T06:30:06;99991.81;;;7.05;100.00
69060;BME280;56135;37.534;-122.308;2023-03-22T06:32:32;99989.28;;;6.97;100.00
69060;BME280;56135;37.534;-122.308;2023-03-22T06:34:58;99996.22;;;7.01;100.00
69060;BME280;56135;37.534;-122.308;2023-03-22T06:37:24;99997.13;;;7.00;100.00
69060;BME280;56135;37.534;-122.308;2023-03-22T06:39:50;99991.72;;;7.14;100.00
69060;BME280;56135;37.534;-122.308;2023-03-22T06:42:16;99996.09;;;7.13;100.00
69060;BME280;56135;37.534;-122.308;2023-03-22T06:44:42;100000.47;;;7.14;100.00
69060;BME280;56135;37.534;-122.308;2023-03-22T06:47:09;100004.91;;;7.09;100.00
69060;BME280;56135;37.534;-122.308;2023-03-22T06:49:36;100010.13;;;7.14;100.00
69060;BME280;56135;37.534;-122.308;2023-03-22T06:52:02;100015.44;;;7.08;100.00
69060;BME280;56135;37.534;-122.308;2023-03-22T06:54:28;100032.88;;;7.13;100.00
69060;BME280;56135;37.534;-122.308;2023-03-22T06:56:53;100030.25;;;7.15;100.00
69060;BME280;56135;37.534;-122.308;2023-03-22T06:59:19;100038.19;;;7.07;100.00
69060;BME280;56135;37.534;-122.308;2023-03-22T07:01:45;100031.16;;;7.12;100.00
69060;BME280;56135;37.534;-122.308;2023-03-22T07:04:12;100041.59;;;7.17;100.00
69060;BME280;56135;37.534;-122.308;2023-03-22T07:06:38;100047.69;;;7.21;100.00
69060;BME280;56135;37.534;-122.308;2023-03-22T07:09:04;100051.19;;;7.21;100.00
69060;BME280;56135;37.534;-122.308;2023-03-22T07:11:30;100054.72;;;7.18;100.00
69060;BME280;56135;37.534;-122.308;2023-03-22T07:13:56;100052.88;;;7.25;100.00
69060;BME280;56135;37.534;-122.308;2023-03-22T07:16:22;100060.88;;;7.16;100.00
69060;BME280;56135;37.534;-122.308;2023-03-22T07:18:48;100061.78;;;7.15;100.00
69060;BME280;56135;37.534;-122.308;2023-03-22T07:21:14;100069.63;;;7.16;100.00
69060;BME280;56135;37.534;-122.308;2023-03-22T07:23:40;100066.91;;;7.23;100.00
69060;BME280;56135;37.534;-122.308;2023-03-22T07:26:06;100077.44;;;7.24;100.00
69060;BME280;56135;37.534;-122.308;2023-03-22T07:28:32;100084.38;;;7.30;100.00
69060;BME280;56135;37.534;-122.308;2023-03-22T07:30:58;100084.41;;;7.28;100.00
69060;BME280;56135;37.534;-122.308;2023-03-22T07:33:24;100083.50;;;7.29;100.00
69060;BME280;56135;37.534;-122.308;2023-03-22T07:35:50;100080.03;;;7.27;100.00
69060;BME280;56135;37.534;-122.308;2023-03-22T07:38:16;100086.22;;;7.18;100.00
69060;BME280;56135;37.534;-122.308;2023-03-22T07:40:41;100081.78;;;7.25;100.00
69060;BME280;56135;37.534;-122.308;2023-03-22T07:43:07;100087.97;;;7.24;100.00
69060;BME280;56135;37.534;-122.308;2023-03-22T07:45:36;100090.47;;;7.32;100.00
69060;BME280;56135;37.534;-122.308;2023-03-22T07:48:02;100093.94;;;7.35;100.00
69060;BME280;56135;37.534;-122.308;2023-03-22T07:50:27;100093.91;;;7.39;100.00
69060;BME280;56135;37.534;-122.308;2023-03-22T07:52:53;100100.09;;;7.34;100.00
69060;BME280;56135;37.534;-122.308;2023-03-22T07:55:19;100102.75;;;7.31;100.00
69060;BME280;56135;37.534;-122.308;2023-03-22T07:57:45;100101.88;;;7.29;100.00
69060;BME280;56135;37.534;-122.308;2023-03-22T08:00:11;100098.47;;;7.24;100.00
69060;BME280;56135;37.534;-122.308;2023-03-22T08:02:37;100101.03;;;7.29;100.00
69060;BME280;56135;37.534;-122.308;2023-03-22T08:05:04;100108.97;;;7.21;100.00
69060;BME280;56135;37.534;-122.308;2023-03-22T08:07:31;100108.88;;;7.33;100.00
69060;BME280;56135;37.534;-122.308;2023-03-22T08:09:57;100117.59;;;7.37;100.00
69060;BME280;56135;37.534;-122.308;2023-03-22T08:12:23;100114.06;;;7.38;100.00
69060;BME280;56135;37.534;-122.308;2023-03-22T08:14:49;100112.41;;;7.31;100.00
69060;BME280;56135;37.534;-122.308;2023-03-22T08:17:15;100115.03;;;7.29;100.00
69060;BME280;56135;37.534;-122.308;2023-03-22T08:19:41;100120.44;;;7.14;100.00
69060;BME280;56135;37.534;-122.308;2023-03-22T08:22:07;100120.38;;;7.18;100.00
69060;BME280;56135;37.534;-122.308;2023-03-22T08:24:33;100119.56;;;7.15;100.00
69060;BME280;56135;37.534;-122.308;2023-03-22T08:26:59;100121.28;;;7.17;100.00
69060;BME280;56135;37.534;-122.308;2023-03-22T08:29:25;100132.63;;;7.21;100.00
69060;BME280;56135;37.534;-122.308;2023-03-22T08:31:51;100133.53;;;7.17;100.00
69060;BME280;56135;37.534;-122.308;2023-03-22T08:34:18;100127.44;;;7.13;100.00
69060;BME280;56135;37.534;-122.308;2023-03-22T08:36:44;100129.19;;;7.13;100.00
69060;BME280;56135;37.534;-122.308;2023-03-22T08:39:10;100136.19;;;7.14;100.00
69060;BME280;56135;37.534;-122.308;2023-03-22T08:41:37;100141.44;;;7.14;100.00
69060;BME280;56135;37.534;-122.308;2023-03-22T08:44:03;100151.13;;;7.09;100.00
69060;BME280;56135;37.534;-122.308;2023-03-22T08:46:29;100151.09;;;7.15;100.00
69060;BME280;56135;37.534;-122.308;2023-03-22T08:48:55;100155.47;;;7.11;100.00
69060;BME280;56135;37.534;-122.308;2023-03-22T08:51:24;100154.59;;;7.14;100.00
69060;BME280;56135;37.534;-122.308;2023-03-22T08:53:50;100160.69;;;7.14;100.00
69060;BME280;56135;37.534;-122.308;2023-03-22T08:56:16;100162.47;;;7.11;100.00
69060;BME280;56135;37.534;-122.308;2023-03-22T08:58:44;100166.84;;;7.15;100.00
69060;BME280;56135;37.534;-122.308;2023-03-22T09:01:14;100170.38;;;7.12;100.00
69060;BME280;56135;37.534;-122.308;2023-03-22T09:03:41;100172.97;;;7.14;100.00
69060;BME280;56135;37.534;-122.308;2023-03-22T09:06:08;100175.53;;;7.22;100.00
69060;BME280;56135;37.534;-122.308;2023-03-22T09:08:34;100191.28;;;7.23;100.00
69060;BME280;56135;37.534;-122.308;2023-03-22T09:11:00;100195.66;;;7.24;100.00
69060;BME280;56135;37.534;-122.308;2023-03-22T09:13:26;100196.53;;;7.25;100.00
69060;BME280;56135;37.534;-122.308;2023-03-22T09:15:52;100187.00;;;7.13;100.00
69060;BME280;56135;37.534;-122.308;2023-03-22T09:18:18;100187.91;;;7.07;100.00
69060;BME280;56135;37.534;-122.308;2023-03-22T09:20:44;100194.84;;;7.14;100.00
69060;BME280;56135;37.534;-122.308;2023-03-22T09:23:13;100199.28;;;7.06;100.00
69060;BME280;56135;37.534;-122.308;2023-03-22T09:25:42;100194.94;;;7.04;100.00
69060;BME280;56135;37.534;-122.308;2023-03-22T09:28:09;100207.19;;;7.05;100.00
69060;BME280;56135;37.534;-122.308;2023-03-22T09:30:35;100217.63;;;7.11;100.00
69060;BME280;56135;37.534;-122.308;2023-03-22T09:33:01;100214.16;;;7.09;100.00
69060;BME280;56135;37.534;-122.308;2023-03-22T09:35:27;100224.66;;;7.09;100.00
69060;BME280;56135;37.534;-122.308;2023-03-22T09:37:53;100218.53;;;7.10;100.00
69060;BME280;56135;37.534;-122.308;2023-03-22T09:40:24;100222.03;;;7.09;100.00
69060;BME280;56135;37.534;-122.308;2023-03-22T09:42:54;100219.38;;;7.12;100.00
69060;BME280;56135;37.534;-122.308;2023-03-22T09:45:23;100229.91;;;7.09;100.00
69060;BME280;56135;37.534;-122.308;2023-03-22T09:47:55;100233.34;;;7.17;100.00
69060;BME280;56135;37.534;-122.308;2023-03-22T09:50:23;100239.53;;;7.13;100.00
69060;BME280;56135;37.534;-122.308;2023-03-22T09:52:50;100236.84;;;7.16;100.00
69060;BME280;56135;37.534;-122.308;2023-03-22T09:55:33;100240.34;;;7.20;100.00
69060;BME280;56135;37.534;-122.308;2023-03-22T09:58:06;100242.97;;;7.21;100.00
69060;BME280;56135;37.534;-122.308;2023-03-22T10:00:37;100250.91;;;7.15;100.00
69060;BME280;56135;37.534;-122.308;2023-03-22T10:05:45;100241.25;;;7.17;100.00
69060;BME280;56135;37.534;-122.308;2023-03-22T10:08:17;100254.38;;;7.17;100.00
69060;BME280;56135;37.534;-122.308;2023-03-22T10:10:48;100258.72;;;7.21;100.00
69060;BME280;56135;37.534;-122.308;2023-03-22T10:13:19;100255.28;;;7.11;100.00
69060;BME280;56135;37.534;-122.308;2023-03-22T10:16:06;100264.94;;;7.12;100.00
69060;BME280;56135;37.534;-122.308;2023-03-22T10:18:36;100262.28;;;7.15;100.00
69060;BME280;56135;37.534;-122.308;2023-03-22T10:21:07;100261.34;;;7.21;100.00
69060;BME280;56135;37.534;-122.308;2023-03-22T10:23:35;100265.75;;;7.16;100.00
69060;BME280;56135;37.534;-122.308;2023-03-22T10:26:03;100258.66;;;7.30;100.00
69060;BME280;56135;37.534;-122.308;2023-03-22T10:28:34;100273.69;;;7.10;100.00
69060;BME280;56135;37.534;-122.308;2023-03-22T10:31:02;100269.31;;;7.09;100.00
69060;BME280;56135;37.534;-122.308;2023-03-22T10:33:42;100270.16;;;7.11;100.00
69060;BME280;56135;37.534;-122.308;2023-03-22T10:36:15;100274.56;;;7.10;100.00
69060;BME280;56135;37.534;-122.308;2023-03-22T10:38:45;100279.78;;;7.12;100.00
69060;BME280;56135;37.534;-122.308;2023-03-22T10:41:13;100278.94;;;7.10;100.00
69060;BME280;56135;37.534;-122.308;2023-03-22T10:43:41;100283.31;;;7.14;100.00
69060;BME280;56135;37.534;-122.308;2023-03-22T10:46:09;100283.31;;;7.09;100.00
69060;BME280;56135;37.534;-122.308;2023-03-22T10:48:41;100283.31;;;7.09;100.00
69060;BME280;56135;37.534;-122.308;2023-03-22T10:51:10;100284.22;;;7.10;100.00
69060;BME280;56135;37.534;-122.308;2023-03-22T10:53:42;100280.69;;;7.14;100.00
69060;BME280;56135;37.534;-122.308;2023-03-22T10:56:10;100285.06;;;7.12;100.00
69060;BME280;56135;37.534;-122.308;2023-03-22T10:58:37;100284.22;;;7.10;100.00
69060;BME280;56135;37.534;-122.308;2023-03-22T11:01:04;100286.81;;;7.11;100.00
69060;BME280;56135;37.534;-122.308;2023-03-22T11:06:08;100288.56;;;7.14;100.00
69060;BME280;56135;37.534;-122.308;2023-03-22T11:08:48;100295.56;;;7.10;100.00
69060;BME280;56135;37.534;-122.308;2023-03-22T11:11:16;100293.84;;;7.08;100.00
69060;BME280;56135;37.534;-122.308;2023-03-22T11:13:42;100296.44;;;7.09;100.00
69060;BME280;56135;37.534;-122.308;2023-03-22T11:16:15;100302.59;;;7.08;100.00
69060;BME280;56135;37.534;-122.308;2023-03-22T11:18:41;100306.13;;;7.06;100.00
69060;BME280;56135;37.534;-122.308;2023-03-22T11:21:09;100304.34;;;7.06;100.00
69060;BME280;56135;37.534;-122.308;2023-03-22T11:23:36;100295.56;;;7.12;100.00
69060;BME280;56135;37.534;-122.308;2023-03-22T11:26:12;100306.94;;;7.09;100.00
69060;BME280;56135;37.534;-122.308;2023-03-22T11:28:45;100312.16;;;7.17;100.00
69060;BME280;56135;37.534;-122.308;2023-03-22T11:31:13;100308.69;;;7.15;100.00
69060;BME280;56135;37.534;-122.308;2023-03-22T11:33:55;100314.78;;;7.18;100.00
69060;BME280;56135;37.534;-122.308;2023-03-22T11:36:21;100316.53;;;7.24;100.00
69060;BME280;56135;37.534;-122.308;2023-03-22T11:38:47;100320.91;;;7.22;100.00
69060;BME280;56135;37.534;-122.308;2023-03-22T11:41:28;100325.28;;;7.22;100.00
69060;BME280;56135;37.534;-122.308;2023-03-22T11:43:55;100319.19;;;7.16;100.00
69060;BME280;56135;37.534;-122.308;2023-03-22T11:46:22;100320.94;;;7.19;100.00
69060;BME280;56135;37.534;-122.308;2023-03-22T11:48:49;100333.19;;;7.17;100.00
69060;BME280;56135;37.534;-122.308;2023-03-22T11:51:25;100334.06;;;7.17;100.00
69060;BME280;56135;37.534;-122.308;2023-03-22T11:54:36;100344.56;;;7.21;100.00
69060;BME280;56135;37.534;-122.308;2023-03-22T11:56:46;100348.09;;;7.15;100.00
69060;BME280;56135;37.534;-122.308;2023-03-22T11:59:13;100348.09;;;7.16;100.00
69060;BME280;56135;37.534;-122.308;2023-03-22T12:04:21;100355.06;;;7.21;100.00
69060;BME280;56135;37.534;-122.308;2023-03-22T12:06:48;100358.53;;;7.23;100.00
69060;BME280;56135;37.534;-122.308;2023-03-22T12:12:02;100372.59;;;7.17;100.00
69060;BME280;56135;37.534;-122.308;2023-03-22T12:22:10;100374.31;;;7.21;100.00
69060;BME280;56135;37.534;-122.308;2023-03-22T12:24:36;100380.47;;;7.18;100.00
69060;BME280;56135;37.534;-122.308;2023-03-22T12:27:24;100385.69;;;7.20;100.00
69060;BME280;56135;37.534;-122.308;2023-03-22T12:29:53;100389.22;;;7.16;100.00
69060;BME280;56135;37.534;-122.308;2023-03-22T12:32:24;100402.38;;;7.13;100.00
69060;BME280;56135;37.534;-122.308;2023-03-22T12:34:51;100400.63;;;7.15;100.00
69060;BME280;56135;37.534;-122.308;2023-03-22T12:37:29;100401.50;;;7.15;100.00
69060;BME280;56135;37.534;-122.308;2023-03-22T12:39:58;100400.63;;;7.15;100.00
69060;BME280;56135;37.534;-122.308;2023-03-22T12:42:36;100409.34;;;7.18;100.00
69060;BME280;56135;37.534;-122.308;2023-03-22T12:45:13;100414.63;;;7.17;100.00
69060;BME280;56135;37.534;-122.308;2023-03-22T12:47:42;100421.63;;;7.13;100.00
69060;BME280;56135;37.534;-122.308;2023-03-22T12:50:18;100421.59;;;7.23;100.00
69060;BME280;56135;37.534;-122.308;2023-03-22T12:52:50;100426.00;;;7.21;100.00
69060;BME280;56135;37.534;-122.308;2023-03-22T12:55:27;100433.03;;;7.15;100.00
69060;BME280;56135;37.534;-122.308;2023-03-22T12:57:54;100430.38;;;7.20;100.00
69060;BME280;56135;37.534;-122.308;2023-03-22T13:00:25;100430.38;;;7.22;100.00
69060;BME280;56135;37.534;-122.308;2023-03-22T13:02:57;100433.88;;;7.22;100.00
69060;BME280;56135;37.534;-122.308;2023-03-22T13:05:25;100440.91;;;7.17;100.00
69060;BME280;56135;37.534;-122.308;2023-03-22T13:07:52;100446.16;;;7.17;100.00
69060;BME280;56135;37.534;-122.308;2023-03-22T13:15:33;100457.53;;;7.16;100.00
69060;BME280;56135;37.534;-122.308;2023-03-22T13:17:59;100457.53;;;7.22;100.00
69060;BME280;56135;37.534;-122.308;2023-03-22T13:20:26;100459.25;;;7.28;100.00
69060;BME280;56135;37.534;-122.308;2023-03-22T13:25:26;100475.03;;;7.20;100.00
69060;BME280;56135;37.534;-122.308;2023-03-22T13:27:54;100480.28;;;7.20;100.00
69060;BME280;56135;37.534;-122.308;2023-03-22T13:32:51;100486.41;;;7.22;100.00
69060;BME280;56135;37.534;-122.308;2023-03-22T13:35:23;100489.91;;;7.27;100.00
69060;BME280;56135;37.534;-122.308;2023-03-22T13:37:49;100497.78;;;7.23;100.00
69060;BME280;56135;37.534;-122.308;2023-03-22T13:40:30;100495.19;;;7.24;100.00